Time;durP1;ratioP1;P1;durP2;ratioP2;P2;SDS_P1;SDS_P2;PMS_P1;PMS_P2;Temp;Humidity;BMP_temperature;BMP_pressure;BME280_temperature;BME280_humidity;BME280_pressure;Samples;Min_cycle;Max_cycle;Signal;HPM_P1;HPM_P2
2024/04/22 00:01:02;;;;;;;;;;;;;;;;;;141418;1244;22333;-81
2024/04/22 00:04:21;;;;;;;;;;;;;;;;;;141434;1244;22396;-81
2024/04/22 00:07:22;;;;;;;;;;;;;;;;;;141420;1244;22325;-81
2024/04/22 00:10:24;;;;;;;;;;;;;;;;;;141431;1244;22265;-81
2024/04/22 00:13:25;;;;;;;;;;;;;;;;;;141424;1244;22173;-81
2024/04/22 00:16:26;;;;;;;;;;;;;;;;;;141427;1244;22265;-80
2024/04/22 00:19:27;;;;;;;;;;;;;;;;;;141445;1244;22242;-81
2024/04/22 00:22:28;;;;;;;;;;;;;;;;;;141449;1244;22225;-80
2024/04/22 00:25:29;;;;;;;;;;;;;;;;;;141427;1244;22180;-81
2024/04/22 00:28:30;;;;;;;;;;;;;;;;;;141413;1244;22360;-81
2024/04/22 00:31:31;;;;;;;;;;;;;;;;;;141442;1244;22233;-81
2024/04/22 00:34:32;;;;;;;;;;;;;;;;;;141440;1244;22265;-81
2024/04/22 00:37:33;;;;;;;;;;;;;;;;;;141427;1244;22253;-81
2024/04/22 00:40:34;;;;;;;;;;;;;;;;;;141429;1244;22785;-81
2024/04/22 00:43:35;;;;;;;;;;;;;;;;;;141420;1244;22249;-81
2024/04/22 00:46:37;;;;;;;;;;;;;;;;;;141437;1244;22242;-81
2024/04/22 00:49:38;;;;;;;;;;;;;;;;;;141414;1243;22270;-81
2024/04/22 00:52:39;;;;;;;;;;;;;;;;;;141427;1244;22254;-81
2024/04/22 00:55:40;;;;;;;;;;;;;;;;;;141428;1244;22198;-81
2024/04/22 00:58:41;;;;;;;;;;;;;;;;;;141462;1244;22370;-81
2024/04/22 01:01:42;;;;;;;;;;;;;;;;;;141460;1244;22262;-80
2024/04/22 01:04:43;;;;;;;;;;;;;;;;;;141425;1244;22268;-80
2024/04/22 01:07:44;;;;;;;;;;;;;;;;;;141445;1244;22335;-83
2024/04/22 01:10:45;;;;;;;;;;;;;;;;;;141442;1244;22238;-81
2024/04/22 01:13:46;;;;;;;;;;;;;;;;;;141445;1244;22309;-82
2024/04/22 01:16:47;;;;;;;;;;;;;;;;;;141432;1244;22590;-81
2024/04/22 01:19:48;;;;;;;;;;;;;;;;;;141531;1244;22257;-80
2024/04/22 01:22:49;;;;;;;;;;;;;;;;;;141659;1244;22253;-80
2024/04/22 01:25:50;;;;;;;;;;;;;;;;;;141677;1242;22226;-80
2024/04/22 01:28:52;;;;;;;;;;;;;;;;;;141612;1244;22388;-81
2024/04/22 01:31:53;;;;;;;;;;;;;;;;;;141558;1244;22235;-80
2024/04/22 01:34:54;;;;;;;;;;;;;;;;;;141457;1244;22296;-81
2024/04/22 01:37:55;;;;;;;;;;;;;;;;;;141450;1244;22622;-81
2024/04/22 01:40:56;;;;;;;;;;;;;;;;;;141451;1244;22296;-81
2024/04/22 01:43:57;;;;;;;;;;;;;;;;;;141465;1244;22269;-82
2024/04/22 01:46:59;;;;;;;;;;;;;;;;;;141456;1244;22331;-82
2024/04/22 01:50:00;;;;;;;;;;;;;;;;;;141469;1244;22754;-82
2024/04/22 01:53:01;;;;;;;;;;;;;;;;;;141492;1244;22308;-82
2024/04/22 01:56:02;;;;;;;;;;;;;;;;;;141483;1244;22241;-82
2024/04/22 01:59:03;;;;;;;;;;;;;;;;;;141474;1244;22365;-81
2024/04/22 02:02:04;;;;;;;;;;;;;;;;;;141478;1244;22605;-80
2024/04/22 02:05:05;;;;;;;;;;;;;;;;;;141468;1244;22272;-81
2024/04/22 02:08:07;;;;;;;;;;;;;;;;;;141461;1244;22266;-80
2024/04/22 02:11:08;;;;;;;;;;;;;;;;;;141448;1244;22177;-80
2024/04/22 02:14:09;;;;;;;;;;;;;;;;;;141425;1244;22256;-81
2024/04/22 02:17:10;;;;;;;;;;;;;;;;;;141460;1244;22173;-80
2024/04/22 02:20:11;;;;;;;;;;;;;;;;;;141420;1244;22270;-80
2024/04/22 02:23:12;;;;;;;;;;;;;;;;;;141414;1244;22257;-80
2024/04/22 02:26:13;;;;;;;;;;;;;;;;;;141437;1244;22160;-80
2024/04/22 02:29:14;;;;;;;;;;;;;;;;;;141437;1244;22401;-81
2024/04/22 02:32:19;;;;;;;;;;;;;;;;;;141469;1244;22920;-81
2024/04/22 02:35:20;;;;;;;;;;;;;;;;;;141431;1244;22240;-79
2024/04/22 02:38:22;;;;;;;;;;;;;;;;;;141463;1244;22302;-81
2024/04/22 02:41:23;;;;;;;;;;;;;;;;;;141422;1244;22339;-80
2024/04/22 02:44:24;;;;;;;;;;;;;;;;;;141444;1244;22260;-80
2024/04/22 02:47:25;;;;;;;;;;;;;;;;;;141461;1244;22329;-80
2024/04/22 02:50:26;;;;;;;;;;;;;;;;;;141467;1244;22236;-81
2024/04/22 02:53:29;;;;;;;;;;;;;;;;;;141463;1244;22261;-81
2024/04/22 02:56:30;;;;;;;;;;;;;;;;;;141455;1237;22223;-81
2024/04/22 02:59:34;;;;;;;;;;;;;;;;;;141463;1244;22369;-81
2024/04/22 03:02:37;;;;;;;;;;;;;;;;;;141497;1240;22204;-81
2024/04/22 03:05:41;;;;;;;;;;;;;;;;;;141459;1244;22178;-80
2024/04/22 03:08:42;;;;;;;;;;;;;;;;;;141520;1244;22261;-80
2024/04/22 03:11:43;;;;;;;;;;;;;;;;;;141514;1244;22174;-80
2024/04/22 03:14:44;;;;;;;;;;;;;;;;;;141445;1244;22188;-79
2024/04/22 03:17:46;;;;;;;;;;;;;;;;;;141429;1244;22153;-80
2024/04/22 03:20:47;;;;;;;;;;;;;;;;;;141464;1240;22651;-81
2024/04/22 03:23:48;;;;;;;;;;;;;;;;;;141490;1244;22231;-81
2024/04/22 03:26:49;;;;;;;;;;;;;;;;;;141453;1244;22175;-81
2024/04/22 03:29:50;;;;;;;;;;;;;;;;;;141465;1244;22351;-79
2024/04/22 03:32:51;;;;;;;;;;;;;;;;;;141489;1244;22230;-81
2024/04/22 03:35:53;;;;;;;;;;;;;;;;;;141455;1244;22248;-80
2024/04/22 03:38:54;;;;;;;;;;;;;;;;;;141401;1244;22400;-79
2024/04/22 03:41:55;;;;;;;;;;;;;;;;;;141369;1243;22180;-79
2024/04/22 03:44:56;;;;;;;;;;;;;;;;;;141402;1244;22161;-79
2024/04/22 03:51:16;;;;;;;;;;;;;;;;;;141411;1244;22254;-77
2024/04/22 03:54:19;;;;;;;;;;;;;;;;;;141401;1244;22651;-79
2024/04/22 03:57:20;;;;;;;;;;;;;;;;;;141359;1244;22782;-78
2024/04/22 04:00:21;;;;;;;;;;;;;;;;;;141425;1244;22341;-79
2024/04/22 04:03:22;;;;;;;;;;;;;;;;;;141433;1244;22257;-78
2024/04/22 04:06:23;;;;;;;;;;;;;;;;;;141429;1244;22247;-78
2024/04/22 04:09:24;;;;;;;;;;;;;;;;;;141404;1244;22253;-78
2024/04/22 04:12:25;;;;;;;;;;;;;;;;;;141571;1244;22225;-77
2024/04/22 04:15:27;;;;;;;;;;;;;;;;;;141564;1244;22385;-77
2024/04/22 04:18:28;;;;;;;;;;;;;;;;;;141542;1244;22346;-76
2024/04/22 04:21:29;;;;;;;;;;;;;;;;;;141505;1244;22167;-77
2024/04/22 04:24:30;;;;;;;;;;;;;;;;;;141443;1244;22358;-78
2024/04/22 04:27:31;;;;;;;;;;;;;;;;;;141412;1244;22691;-78
2024/04/22 04:30:32;;;;;;;;;;;;;;;;;;141377;1244;22331;-76
2024/04/22 04:33:33;;;;;;;;;;;;;;;;;;141368;1244;22210;-78
2024/04/22 04:36:34;;;;;;;;;;;;;;;;;;141404;1244;22155;-78
2024/04/22 04:39:35;;;;;;;;;;;;;;;;;;141375;1244;22237;-80
2024/04/22 04:42:36;;;;;;;;;;;;;;;;;;141366;1244;22172;-80
2024/04/22 04:45:38;;;;;;;;;;;;;;;;;;141315;1244;22265;-79
2024/04/22 04:48:39;;;;;;;;;;;;;;;;;;141313;1244;22219;-79
2024/04/22 04:51:40;;;;;;;;;;;;;;;;;;141311;1244;22967;-80
2024/04/22 04:54:41;;;;;;;;;;;;;;;;;;141288;1244;22260;-80
2024/04/22 04:57:42;;;;;;;;;;;;;;;;;;141299;1244;22215;-78
2024/04/22 05:00:43;;;;;;;;;;;;;;;;;;141306;1244;22334;-79
2024/04/22 05:03:45;;;;;;;;;;;;;;;;;;141338;1244;22271;-79
2024/04/22 05:06:49;;;;;;;;;;;;;;;;;;141300;1244;22145;-79
2024/04/22 05:09:50;;;;;;;;;;;;;;;;;;141300;1244;22245;-79
2024/04/22 05:12:51;;;;;;;;;;;;;;;;;;141342;1244;22256;-80
2024/04/22 05:15:52;;;;;;;;;;;;;;;;;;141353;1244;22145;-81
2024/04/22 05:18:54;;;;;;;;;;;;;;;;;;141299;1244;22398;-80
2024/04/22 05:21:55;;;;;;;;;;;;;;;;;;141307;1244;22306;-80
2024/04/22 05:24:56;;;;;;;;;;;;;;;;;;141334;1244;22240;-79
2024/04/22 05:27:57;;;;;;;;;;;;;;;;;;141186;1244;22260;-79
2024/04/22 05:30:58;;;;;;;;;;;;;;;;;;141329;1244;22307;-78
2024/04/22 05:37:19;;;;;;;;;;;;;;;;;;141338;1244;22245;-78
2024/04/22 05:40:20;;;;;;;;;;;;;;;;;;141327;1244;22245;-78
2024/04/22 05:43:21;;;;;;;;;;;;;;;;;;141307;1244;22191;-78
2024/04/22 05:46:23;;;;;;;;;;;;;;;;;;141301;1244;22231;-78
2024/04/22 05:49:38;;;;;;;;;;;;;;;;;;141173;1244;22478;-77
2024/04/22 05:52:40;;;;;;;;;;;;;;;;;;141330;1244;22161;-79
2024/04/22 05:55:41;;;;;;;;;;;;;;;;;;141327;1244;22295;-81
2024/04/22 05:58:42;;;;;;;;;;;;;;;;;;141273;1244;22320;-80
2024/04/22 06:01:43;;;;;;;;;;;;;;;;;;141316;1244;22266;-79
2024/04/22 06:04:44;;;;;;;;;;;;;;;;;;141396;1244;22260;-79
2024/04/22 06:07:45;;;;;;;;;;;;;;;;;;141380;1244;22734;-79
2024/04/22 06:10:46;;;;;;;;;;;;;;;;;;141373;1244;22289;-78
2024/04/22 06:13:48;;;;;;;;;;;;;;;;;;141373;1244;22164;-80
2024/04/22 06:16:51;;;;;;;;;;;;;;;;;;141368;1244;22681;-79
2024/04/22 06:19:52;;;;;;;;;;;;;;;;;;141352;1244;22328;-79
2024/04/22 06:22:53;;;;;;;;;;;;;;;;;;141279;1244;22252;-77
2024/04/22 06:25:54;;;;;;;;;;;;;;;;;;141272;1244;22259;-75
2024/04/22 06:28:55;;;;;;;;;;;;;;;;;;141279;1244;22838;-78
2024/04/22 06:31:56;;;;;;;;;;;;;;;;;;141303;1244;22170;-80
2024/04/22 06:34:57;;;;;;;;;;;;;;;;;;141407;1244;22221;-79
2024/04/22 06:37:59;;;;;;;;;;;;;;;;;;141353;1244;22236;-79
2024/04/22 06:41:00;;;;;;;;;;;;;;;;;;141373;1244;22212;-79
2024/04/22 06:44:01;;;;;;;;;;;;;;;;;;141400;1244;22173;-81
2024/04/22 06:47:02;;;;;;;;;;;;;;;;;;141376;1244;22280;-80
2024/04/22 06:50:03;;;;;;;;;;;;;;;;;;141330;1244;22257;-79
2024/04/22 06:53:04;;;;;;;;;;;;;;;;;;141474;1244;22166;-78
2024/04/22 06:56:05;;;;;;;;;;;;;;;;;;141555;1244;22241;-78
2024/04/22 06:59:06;;;;;;;;;;;;;;;;;;141545;1244;22416;-77
2024/04/22 07:02:08;;;;;;;;;;;;;;;;;;141567;1244;22210;-76
2024/04/22 07:05:09;;;;;;;;;;;;;;;;;;141550;1240;22171;-78
2024/04/22 07:08:10;;;;;;;;;;;;;;;;;;141505;1244;22161;-77
2024/04/22 07:11:11;;;;;;;;;;;;;;;;;;141427;1240;22167;-78
2024/04/22 07:14:14;;;;;;;;;;;;;;;;;;141414;1244;22246;-78
2024/04/22 07:17:15;;;;;;;;;;;;;;;;;;141416;1244;22221;-80
2024/04/22 07:20:16;;;;;;;;;;;;;;;;;;141381;1244;22154;-79
2024/04/22 07:23:17;;;;;;;;;;;;;;;;;;141304;1244;22943;-80
2024/04/22 07:26:18;;;;;;;;;;;;;;;;;;141337;1244;22836;-80
2024/04/22 07:29:19;;;;;;;;;;;;;;;;;;141402;1244;22335;-78
2024/04/22 07:32:20;;;;;;;;;;;;;;;;;;141370;1244;22230;-78
2024/04/22 07:35:21;;;;;;;;;;;;;;;;;;141354;1244;22216;-79
2024/04/22 07:38:24;;;;;;;;;;;;;;;;;;141319;1244;22303;-79
2024/04/22 07:41:25;;;;;;;;;;;;;;;;;;141312;1244;22190;-78
2024/04/22 07:44:26;;;;;;;;;;;;;;;;;;141326;1244;22255;-78
2024/04/22 07:47:28;;;;;;;;;;;;;;;;;;141302;1244;22169;-78
2024/04/22 07:50:29;;;;;;;;;;;;;;;;;;141336;1244;22242;-79
2024/04/22 07:53:30;;;;;;;;;;;;;;;;;;141341;1244;22856;-80
2024/04/22 07:56:31;;;;;;;;;;;;;;;;;;141393;1244;22329;-79
2024/04/22 07:59:32;;;;;;;;;;;;;;;;;;141358;1244;22348;-80
2024/04/22 08:02:34;;;;;;;;;;;;;;;;;;141332;1244;22246;-79
2024/04/22 08:05:35;;;;;;;;;;;;;;;;;;141345;1244;22280;-80
2024/04/22 08:08:36;;;;;;;;;;;;;;;;;;141321;1244;22170;-80
2024/04/22 08:11:37;;;;;;;;;;;;;;;;;;141357;1244;23116;-79
2024/04/22 08:14:39;;;;;;;;;;;;;;;;;;141358;1244;22178;-79
2024/04/22 08:17:40;;;;;;;;;;;;;;;;;;141319;1244;22234;-79
2024/04/22 08:20:41;;;;;;;;;;;;;;;;;;141385;1244;22180;-80
2024/04/22 08:23:43;;;;;;;;;;;;;;;;;;141322;1241;22184;-80
2024/04/22 08:26:44;;;;;;;;;;;;;;;;;;141321;1244;22963;-83
2024/04/22 08:29:45;;;;;;;;;;;;;;;;;;141346;1244;22365;-80
2024/04/22 08:32:46;;;;;;;;;;;;;;;;;;141294;1240;22176;-79
2024/04/22 08:35:47;;;;;;;;;;;;;;;;;;141336;1244;22715;-79
2024/04/22 08:38:48;;;;;;;;;;;;;;;;;;141323;1244;22168;-79
2024/04/22 08:41:49;;;;;;;;;;;;;;;;;;141329;1244;22247;-79
2024/04/22 08:44:50;;;;;;;;;;;;;;;;;;141340;1244;22220;-78
2024/04/22 08:47:51;;;;;;;;;;;;;;;;;;141380;1244;22733;-78
2024/04/22 08:50:55;;;;;;;;;;;;;;;;;;141369;1244;22861;-80
2024/04/22 08:53:56;;;;;;;;;;;;;;;;;;141308;1244;22219;-79
2024/04/22 08:56:57;;;;;;;;;;;;;;;;;;141348;1244;22247;-78
2024/04/22 08:59:59;;;;;;;;;;;;;;;;;;141354;1244;23065;-77
2024/04/22 09:03:00;;;;;;;;;;;;;;;;;;141333;1244;22258;-77
2024/04/22 09:06:01;;;;;;;;;;;;;;;;;;141330;1244;22293;-77
2024/04/22 09:09:02;;;;;;;;;;;;;;;;;;141349;1244;22611;-78
2024/04/22 09:12:03;;;;;;;;;;;;;;;;;;141332;1244;22253;-79
2024/04/22 09:15:05;;;;;;;;;;;;;;;;;;141296;1244;22286;-78
2024/04/22 09:18:06;;;;;;;;;;;;;;;;;;141333;1244;22254;-78
2024/04/22 09:21:07;;;;;;;;;;;;;;;;;;141405;1244;22251;-78
2024/04/22 09:24:09;;;;;;;;;;;;;;;;;;141399;1244;22340;-78
2024/04/22 09:27:10;;;;;;;;;;;;;;;;;;141325;1244;22234;-78
2024/04/22 09:30:11;;;;;;;;;;;;;;;;;;141345;1244;22333;-79
2024/04/22 09:33:12;;;;;;;;;;;;;;;;;;141244;1244;215016;-79
2024/04/22 09:36:14;;;;;;;;;;;;;;;;;;141428;1244;22340;-77
2024/04/22 09:39:15;;;;;;;;;;;;;;;;;;141360;1244;22188;-79
2024/04/22 09:42:16;;;;;;;;;;;;;;;;;;141458;1244;22191;-81
2024/04/22 09:45:17;;;;;;;;;;;;;;;;;;141521;1244;22262;-79
2024/04/22 09:48:18;;;;;;;;;;;;;;;;;;141542;1240;22168;-81
2024/04/22 09:51:19;;;;;;;;;;;;;;;;;;141500;1244;22269;-78
2024/04/22 09:54:20;;;;;;;;;;;;;;;;;;141403;1244;22278;-78
2024/04/22 09:57:21;;;;;;;;;;;;;;;;;;141340;1241;22185;-80
2024/04/22 10:00:28;;;;;;;;;;;;;;;;;;141336;1244;23064;-81
2024/04/22 10:03:29;;;;;;;;;;;;;;;;;;141364;1244;22242;-79
2024/04/22 10:06:32;;;;;;;;;;;;;;;;;;141339;1244;22241;-79
2024/04/22 10:09:33;;;;;;;;;;;;;;;;;;141376;1244;22793;-79
2024/04/22 10:12:34;;;;;;;;;;;;;;;;;;141324;1240;22746;-79
2024/04/22 10:15:35;;;;;;;;;;;;;;;;;;141346;1244;22717;-80
2024/04/22 10:18:36;;;;;;;;;;;;;;;;;;141384;1244;22171;-79
2024/04/22 10:21:37;;;;;;;;;;;;;;;;;;141399;1244;22712;-79
2024/04/22 10:24:39;;;;;;;;;;;;;;;;;;141351;1244;22298;-79
2024/04/22 10:27:40;;;;;;;;;;;;;;;;;;141368;1244;22321;-78
2024/04/22 10:30:41;;;;;;;;;;;;;;;;;;141280;1244;22366;-78
2024/04/22 10:33:42;;;;;;;;;;;;;;;;;;141322;1244;22296;-78
2024/04/22 10:36:43;;;;;;;;;;;;;;;;;;141307;1244;22257;-79
2024/04/22 10:39:44;;;;;;;;;;;;;;;;;;141279;1244;22381;-78
2024/04/22 10:42:45;;;;;;;;;;;;;;;;;;141290;1244;22281;-78
2024/04/22 10:45:47;;;;;;;;;;;;;;;;;;141333;1244;22547;-79
2024/04/22 10:48:48;;;;;;;;;;;;;;;;;;141246;1244;22373;-78
2024/04/22 10:51:50;;;;;;;;;;;;;;;;;;141286;1244;22172;-76
2024/04/22 10:54:51;;;;;;;;;;;;;;;;;;141250;1244;22302;-78
2024/04/22 10:57:52;;;;;;;;;;;;;;;;;;141281;1244;22172;-79
2024/04/22 11:00:53;;;;;;;;;;;;;;;;;;141284;1240;22381;-79
2024/04/22 11:03:54;;;;;;;;;;;;;;;;;;141309;1244;22165;-81
2024/04/22 11:07:05;;;;;;;;;;;;;;;;;;141306;1244;22323;-78
2024/04/22 11:10:06;;;;;;;;;;;;;;;;;;141297;1244;22279;-79
2024/04/22 11:13:09;;;;;;;;;;;;;;;;;;141317;1244;22242;-78
2024/04/22 11:16:11;;;;;;;;;;;;;;;;;;141281;1244;22236;-78
2024/04/22 11:19:12;;;;;;;;;;;;;;;;;;141291;1244;22354;-78
2024/04/22 11:22:13;;;;;;;;;;;;;;;;;;141325;1244;22299;-79
2024/04/22 11:25:14;;;;;;;;;;;;;;;;;;141369;1244;22193;-78
2024/04/22 11:28:15;;;;;;;;;;;;;;;;;;141314;1244;22734;-80
2024/04/22 11:31:16;;;;;;;;;;;;;;;;;;141336;1244;22356;-79
2024/04/22 11:34:17;;;;;;;;;;;;;;;;;;141324;1244;22246;-80
2024/04/22 11:37:19;;;;;;;;;;;;;;;;;;141314;1244;22257;-79
2024/04/22 11:40:20;;;;;;;;;;;;;;;;;;141305;1244;22323;-81
2024/04/22 11:43:21;;;;;;;;;;;;;;;;;;141298;1244;22733;-80
2024/04/22 11:46:23;;;;;;;;;;;;;;;;;;141288;1244;22270;-79
2024/04/22 11:49:25;;;;;;;;;;;;;;;;;;141260;1240;22202;-80
2024/04/22 11:52:26;;;;;;;;;;;;;;;;;;141286;1244;22410;-80
2024/04/22 11:55:27;;;;;;;;;;;;;;;;;;141304;1240;22215;-79
2024/04/22 11:58:28;;;;;;;;;;;;;;;;;;141329;1244;22479;-79
2024/04/22 12:01:29;;;;;;;;;;;;;;;;;;141285;1240;22190;-79
2024/04/22 12:04:31;;;;;;;;;;;;;;;;;;141253;1244;22173;-78
2024/04/22 12:07:32;;;;;;;;;;;;;;;;;;141274;1244;22136;-81
2024/04/22 12:10:33;;;;;;;;;;;;;;;;;;141362;1244;23275;-81
2024/04/22 12:13:34;;;;;;;;;;;;;;;;;;141306;1243;22243;-81
2024/04/22 12:16:35;;;;;;;;;;;;;;;;;;141474;1244;22142;-83
2024/04/22 12:19:36;;;;;;;;;;;;;;;;;;141444;1244;22283;-83
2024/04/22 12:22:37;;;;;;;;;;;;;;;;;;141402;1244;22661;-81
2024/04/22 12:25:39;;;;;;;;;;;;;;;;;;141427;1244;22282;-81
2024/04/22 12:28:40;;;;;;;;;;;;;;;;;;141479;1244;22345;-80
2024/04/22 12:31:41;;;;;;;;;;;;;;;;;;141480;1244;22265;-81
2024/04/22 12:34:42;;;;;;;;;;;;;;;;;;141441;1237;22190;-81
2024/04/22 12:37:43;;;;;;;;;;;;;;;;;;141379;1240;22191;-80
2024/04/22 12:40:44;;;;;;;;;;;;;;;;;;141307;1244;22342;-82
2024/04/22 12:43:45;;;;;;;;;;;;;;;;;;141280;1244;22290;-81
2024/04/22 12:53:21;;;;;;;;;;;;;;;;;;141360;1244;22286;-81
2024/04/22 12:56:23;;;;;;;;;;;;;;;;;;141292;1244;22194;-81
2024/04/22 12:59:24;;;;;;;;;;;;;;;;;;141394;1244;22346;-83
2024/04/22 13:02:25;;;;;;;;;;;;;;;;;;141385;1244;22305;-81
2024/04/22 13:05:26;;;;;;;;;;;;;;;;;;141425;1244;22262;-84
2024/04/22 13:08:27;;;;;;;;;;;;;;;;;;141288;1244;22297;-83
2024/04/22 13:11:28;;;;;;;;;;;;;;;;;;141422;1244;22270;-82
2024/04/22 13:14:30;;;;;;;;;;;;;;;;;;141425;1240;22269;-83
2024/04/22 13:17:31;;;;;;;;;;;;;;;;;;141399;1244;23221;-83
2024/04/22 13:20:32;;;;;;;;;;;;;;;;;;141302;1244;22313;-83
2024/04/22 13:23:34;;;;;;;;;;;;;;;;;;141297;1244;22174;-81
2024/04/22 13:26:35;;;;;;;;;;;;;;;;;;141238;1244;22727;-81
2024/04/22 13:29:36;;;;;;;;;;;;;;;;;;141272;1243;22378;-82
2024/04/22 13:32:38;;;;;;;;;;;;;;;;;;141248;1244;22172;-81
2024/04/22 13:35:40;;;;;;;;;;;;;;;;;;141255;1244;22238;-81
2024/04/22 13:38:41;;;;;;;;;;;;;;;;;;141304;1238;22176;-82
2024/04/22 13:41:42;;;;;;;;;;;;;;;;;;141284;1244;22204;-82
2024/04/22 13:44:43;;;;;;;;;;;;;;;;;;141323;1244;22257;-80
2024/04/22 13:47:45;;;;;;;;;;;;;;;;;;141342;1244;22651;-83
2024/04/22 13:50:46;;;;;;;;;;;;;;;;;;141347;1244;22232;-83
2024/04/22 13:53:47;;;;;;;;;;;;;;;;;;141344;1244;22261;-83
2024/04/22 13:56:48;;;;;;;;;;;;;;;;;;141372;1244;22259;-81
2024/04/22 13:59:49;;;;;;;;;;;;;;;;;;141355;1244;22348;-81
2024/04/22 14:02:51;;;;;;;;;;;;;;;;;;141365;1243;22333;-83
2024/04/22 14:05:52;;;;;;;;;;;;;;;;;;141353;1244;22263;-81
2024/04/22 14:08:53;;;;;;;;;;;;;;;;;;141340;1244;22258;-80
2024/04/22 14:11:54;;;;;;;;;;;;;;;;;;141343;1244;22164;-79
2024/04/22 14:14:55;;;;;;;;;;;;;;;;;;141320;1244;22267;-80
2024/04/22 14:17:56;;;;;;;;;;;;;;;;;;141359;1244;23101;-80
2024/04/22 14:20:57;;;;;;;;;;;;;;;;;;141368;1244;22162;-80
2024/04/22 14:23:58;;;;;;;;;;;;;;;;;;141331;1238;22180;-82
2024/04/22 14:27:00;;;;;;;;;;;;;;;;;;141237;1244;22260;-81
2024/04/22 14:30:01;;;;;;;;;;;;;;;;;;141354;1244;22349;-81
2024/04/22 14:33:02;;;;;;;;;;;;;;;;;;141410;1244;22191;-81
2024/04/22 14:36:03;;;;;;;;;;;;;;;;;;141343;1244;22175;-81
2024/04/22 14:39:04;;;;;;;;;;;;;;;;;;141383;1244;22189;-81
2024/04/22 14:42:08;;;;;;;;;;;;;;;;;;141391;1244;22247;-82
2024/04/22 14:45:09;;;;;;;;;;;;;;;;;;141388;1244;22178;-82
2024/04/22 14:48:10;;;;;;;;;;;;;;;;;;141414;1240;22183;-79
2024/04/22 14:51:12;;;;;;;;;;;;;;;;;;141366;1243;22341;-80
2024/04/22 14:54:13;;;;;;;;;;;;;;;;;;141381;1244;22416;-82
2024/04/22 14:57:14;;;;;;;;;;;;;;;;;;141439;1244;22279;-85
2024/04/22 15:00:16;;;;;;;;;;;;;;;;;;141394;1244;22539;-83
2024/04/22 15:03:17;;;;;;;;;;;;;;;;;;141433;1244;22304;-83
2024/04/22 15:06:18;;;;;;;;;;;;;;;;;;141423;1244;22314;-85
2024/04/22 15:09:21;;;;;;;;;;;;;;;;;;141567;1244;22274;-83
2024/04/22 15:12:22;;;;;;;;;;;;;;;;;;141733;1240;22162;-84
2024/04/22 15:15:24;;;;;;;;;;;;;;;;;;141106;1249;22274;-84
2024/04/22 15:18:25;;;;;;;;;;;;;;;;;;140628;1249;22303;-81
2024/04/22 15:21:26;;;;;;;;;;;;;;;;;;140320;1252;22820;-82
2024/04/22 15:24:27;;;;;;;;;;;;;;;;;;140200;1256;22253;-83
2024/04/22 15:27:28;;;;;;;;;;;;;;;;;;140043;1256;22274;-81
2024/04/22 15:30:30;;;;;;;;;;;;;;;;;;140132;1256;22788;-82
2024/04/22 15:33:31;;;;;;;;;;;;;;;;;;140109;1256;22201;-82
2024/04/22 15:36:32;;;;;;;;;;;;;;;;;;140088;1256;22736;-81
2024/04/22 15:39:33;;;;;;;;;;;;;;;;;;140072;1256;22302;-80
2024/04/22 15:42:34;;;;;;;;;;;;;;;;;;139994;1256;22243;-81
2024/04/22 15:45:35;;;;;;;;;;;;;;;;;;140020;1256;22199;-81
2024/04/22 15:48:36;;;;;;;;;;;;;;;;;;140040;1256;22341;-83
2024/04/22 15:51:39;;;;;;;;;;;;;;;;;;140057;1256;22290;-82
2024/04/22 15:54:40;;;;;;;;;;;;;;;;;;140080;1256;22686;-82
2024/04/22 15:57:41;;;;;;;;;;;;;;;;;;140056;1256;22268;-82
2024/04/22 16:00:42;;;;;;;;;;;;;;;;;;140052;1256;22385;-82
2024/04/22 16:03:43;;;;;;;;;;;;;;;;;;140038;1256;22378;-81
2024/04/22 16:06:45;;;;;;;;;;;;;;;;;;140015;1256;22863;-82
2024/04/22 16:09:46;;;;;;;;;;;;;;;;;;140013;1256;22330;-81
2024/04/22 16:12:47;;;;;;;;;;;;;;;;;;140064;1256;22468;-81
2024/04/22 16:15:48;;;;;;;;;;;;;;;;;;139976;1256;22270;-81
2024/04/22 16:18:49;;;;;;;;;;;;;;;;;;140070;1256;22197;-80
2024/04/22 16:21:50;;;;;;;;;;;;;;;;;;140081;1256;22398;-81
2024/04/22 16:24:51;;;;;;;;;;;;;;;;;;140016;1256;22681;-81
2024/04/22 16:27:52;;;;;;;;;;;;;;;;;;140059;1256;22362;-81
2024/04/22 16:30:54;;;;;;;;;;;;;;;;;;139945;1256;22346;-82
2024/04/22 16:33:55;;;;;;;;;;;;;;;;;;140009;1256;22269;-81
2024/04/22 16:36:56;;;;;;;;;;;;;;;;;;140023;1256;22180;-82
2024/04/22 16:39:57;;;;;;;;;;;;;;;;;;140057;1256;22665;-83
2024/04/22 16:42:58;;;;;;;;;;;;;;;;;;140054;1256;22832;-81
2024/04/22 16:45:59;;;;;;;;;;;;;;;;;;140044;1256;22239;-82
2024/04/22 16:49:00;;;;;;;;;;;;;;;;;;140061;1256;22769;-82
2024/04/22 16:52:02;;;;;;;;;;;;;;;;;;140071;1256;22479;-82
2024/04/22 16:55:03;;;;;;;;;;;;;;;;;;140022;1256;22237;-81
2024/04/22 16:58:04;;;;;;;;;;;;;;;;;;140050;1256;22690;-83
2024/04/22 17:01:05;;;;;;;;;;;;;;;;;;140061;1256;23037;-82
2024/04/22 17:04:07;;;;;;;;;;;;;;;;;;140047;1256;22726;-84
2024/04/22 17:07:08;;;;;;;;;;;;;;;;;;140095;1256;22252;-82
2024/04/22 17:10:10;;;;;;;;;;;;;;;;;;140087;1256;22195;-82
2024/04/22 17:13:11;;;;;;;;;;;;;;;;;;140077;1256;22222;-82
2024/04/22 17:16:12;;;;;;;;;;;;;;;;;;140092;1256;22274;-82
2024/04/22 17:19:13;;;;;;;;;;;;;;;;;;140073;1256;22644;-83
2024/04/22 17:22:14;;;;;;;;;;;;;;;;;;140071;1256;22686;-82
2024/04/22 17:25:15;;;;;;;;;;;;;;;;;;140058;1256;22230;-83
2024/04/22 17:28:18;;;;;;;;;;;;;;;;;;140066;1256;22591;-82
2024/04/22 17:31:21;;;;;;;;;;;;;;;;;;140039;1256;22376;-83
2024/04/22 17:34:23;;;;;;;;;;;;;;;;;;140053;1256;22279;-83
2024/04/22 17:37:24;;;;;;;;;;;;;;;;;;140057;1256;22355;-83
2024/04/22 17:40:26;;;;;;;;;;;;;;;;;;140089;1256;22859;-83
2024/04/22 17:43:27;;;;;;;;;;;;;;;;;;140050;1256;22186;-83
2024/04/22 17:46:28;;;;;;;;;;;;;;;;;;140030;1256;22200;-83
2024/04/22 17:49:30;;;;;;;;;;;;;;;;;;140081;1256;22178;-83
2024/04/22 17:52:31;;;;;;;;;;;;;;;;;;140033;1256;22173;-82
2024/04/22 17:55:32;;;;;;;;;;;;;;;;;;140070;1256;22277;-82
2024/04/22 17:58:33;;;;;;;;;;;;;;;;;;140070;1257;22362;-82
2024/04/22 18:01:34;;;;;;;;;;;;;;;;;;140013;1256;22288;-82
2024/04/22 18:04:35;;;;;;;;;;;;;;;;;;140219;1256;22289;-82
2024/04/22 18:07:37;;;;;;;;;;;;;;;;;;140261;1252;22144;-82
2024/04/22 18:10:38;;;;;;;;;;;;;;;;;;140215;1256;22262;-82
2024/04/22 18:13:39;;;;;;;;;;;;;;;;;;140156;1256;22249;-81
2024/04/22 18:16:40;;;;;;;;;;;;;;;;;;140105;1256;22827;-82
2024/04/22 18:19:41;;;;;;;;;;;;;;;;;;140080;1256;22259;-81
2024/04/22 18:22:43;;;;;;;;;;;;;;;;;;140029;1256;22259;-80
2024/04/22 18:25:44;;;;;;;;;;;;;;;;;;140028;1256;22301;-80
2024/04/22 18:28:45;;;;;;;;;;;;;;;;;;140033;1256;22926;-80
2024/04/22 18:31:48;;;;;;;;;;;;;;;;;;140019;1256;22265;-80
2024/04/22 18:34:49;;;;;;;;;;;;;;;;;;140037;1256;22598;-84
2024/04/22 18:37:50;;;;;;;;;;;;;;;;;;140089;1256;22266;-81
2024/04/22 18:40:51;;;;;;;;;;;;;;;;;;140139;1256;22266;-81
2024/04/22 18:43:52;;;;;;;;;;;;;;;;;;140120;1256;22325;-81
2024/04/22 18:46:53;;;;;;;;;;;;;;;;;;140025;1256;22813;-81
2024/04/22 18:49:55;;;;;;;;;;;;;;;;;;140034;1256;22269;-82
2024/04/22 18:52:56;;;;;;;;;;;;;;;;;;140020;1256;22216;-81
2024/04/22 18:55:57;;;;;;;;;;;;;;;;;;140006;1256;22342;-81
2024/04/22 18:58:58;;;;;;;;;;;;;;;;;;140012;1256;22347;-81
2024/04/22 19:01:59;;;;;;;;;;;;;;;;;;140055;1256;22172;-82
2024/04/22 19:05:01;;;;;;;;;;;;;;;;;;140004;1256;22334;-81
2024/04/22 19:08:02;;;;;;;;;;;;;;;;;;140028;1256;22279;-82
2024/04/22 19:11:06;;;;;;;;;;;;;;;;;;140036;1256;22193;-82
2024/04/22 19:14:07;;;;;;;;;;;;;;;;;;140010;1256;22207;-81
2024/04/22 19:17:09;;;;;;;;;;;;;;;;;;140005;1256;22271;-81
2024/04/22 19:20:11;;;;;;;;;;;;;;;;;;140024;1256;22709;-82
2024/04/22 19:23:13;;;;;;;;;;;;;;;;;;140030;1257;22734;-81
2024/04/22 19:26:15;;;;;;;;;;;;;;;;;;140001;1256;22819;-81
2024/04/22 19:29:16;;;;;;;;;;;;;;;;;;140014;1253;22412;-81
2024/04/22 19:32:17;;;;;;;;;;;;;;;;;;140018;1256;22190;-81
2024/04/22 19:35:19;;;;;;;;;;;;;;;;;;140016;1256;22215;-82
2024/04/22 19:38:20;;;;;;;;;;;;;;;;;;140001;1256;22654;-81
2024/04/22 19:41:21;;;;;;;;;;;;;;;;;;140012;1256;22220;-82
2024/04/22 19:44:22;;;;;;;;;;;;;;;;;;139970;1256;22386;-81
2024/04/22 19:47:25;;;;;;;;;;;;;;;;;;139984;1256;22330;-82
2024/04/22 19:50:27;;;;;;;;;;;;;;;;;;140032;1256;22663;-82
2024/04/22 19:53:28;;;;;;;;;;;;;;;;;;140050;1256;22665;-82
2024/04/22 19:56:29;;;;;;;;;;;;;;;;;;140038;1256;22256;-80
2024/04/22 19:59:30;;;;;;;;;;;;;;;;;;140047;1250;22366;-81
2024/04/22 20:02:34;;;;;;;;;;;;;;;;;;140042;1256;22285;-82
2024/04/22 20:05:35;;;;;;;;;;;;;;;;;;140029;1256;22211;-81
2024/04/22 20:08:36;;;;;;;;;;;;;;;;;;140003;1256;22178;-79
2024/04/22 20:11:37;;;;;;;;;;;;;;;;;;139932;1256;22261;-79
2024/04/22 20:14:38;;;;;;;;;;;;;;;;;;139973;1256;22186;-80
2024/04/22 20:18:02;;;;;;;;;;;;;;;;;;139971;1256;22247;-81
2024/04/22 20:21:03;;;;;;;;;;;;;;;;;;139959;1256;22202;-80
2024/04/22 20:24:04;;;;;;;;;;;;;;;;;;139957;1256;22314;-81
2024/04/22 20:27:05;;;;;;;;;;;;;;;;;;139955;1256;22292;-81
2024/04/22 20:30:06;;;;;;;;;;;;;;;;;;139948;1256;22368;-79